Time;durP1;ratioP1;P1;durP2;ratioP2;P2;SDS_P1;SDS_P2;PMS_P1;PMS_P2;Temp;Humidity;BMP_temperature;BMP_pressure;BME280_temperature;BME280_humidity;BME280_pressure;Samples;Min_cycle;Max_cycle;Signal;HPM_P1;HPM_P2
2022/10/05 00:01:33;;;;;;;17.17;15.77;;;;;;;10.27;100.00;97270.72;4997166;28;20198;-71
2022/10/05 00:04:11;;;;;;;13.67;12.67;;;;;;;10.30;100.00;97274.75;5011287;28;20187;-71
2022/10/05 00:06:36;;;;;;;12.67;11.67;;;;;;;10.33;100.00;97272.50;4999092;28;20379;-71
2022/10/05 00:09:12;;;;;;;15.47;14.13;;;;;;;10.35;100.00;97261.81;4994863;28;20611;-71
2022/10/05 00:11:37;;;;;;;20.30;18.70;;;;;;;10.37;100.00;97268.44;5001693;28;20183;-71
2022/10/05 00:14:28;;;;;;;14.43;13.17;;;;;;;10.35;100.00;97274.91;5013608;28;20191;-71
2022/10/05 00:16:54;;;;;;;11.70;10.70;;;;;;;10.41;100.00;97271.44;5013825;28;20265;-71
2022/10/05 00:19:36;;;;;;;15.00;14.00;;;;;;;10.48;100.00;97272.19;5009993;28;20179;-71
2022/10/05 00:22:16;;;;;;;10.80;10.00;;;;;;;10.45;100.00;97266.56;5003948;28;20175;-71
2022/10/05 00:24:47;;;;;;;10.00;9.23;;;;;;;10.48;100.00;97269.56;5014052;28;20242;-71
2022/10/05 00:27:22;;;;;;;9.00;7.80;;;;;;;10.47;100.00;97272.41;4994870;28;20258;-71
2022/10/05 00:29:49;;;;;;;8.30;7.60;;;;;;;10.54;100.00;97275.78;4988113;28;20242;-71
2022/10/05 00:32:15;;;;;;;7.67;7.07;;;;;;;10.64;100.00;97268.25;4985017;28;20184;-71
2022/10/05 00:34:41;;;;;;;11.30;10.47;;;;;;;10.58;100.00;97262.03;4993990;28;20194;-72
2022/10/05 00:37:06;;;;;;;9.67;8.87;;;;;;;10.74;100.00;97265.94;4994247;28;20214;-71
2022/10/05 00:39:34;;;;;;;8.93;8.33;;;;;;;10.75;100.00;97263.09;5009141;28;20176;-72
2022/10/05 00:42:14;;;;;;;7.57;7.07;;;;;;;10.79;100.00;97255.59;4983635;28;20192;-72
2022/10/05 00:44:51;;;;;;;7.73;7.10;;;;;;;10.74;100.00;97258.88;5013087;28;20218;-72
2022/10/05 00:47:28;;;;;;;7.90;7.40;;;;;;;10.77;100.00;97258.44;4996024;28;20675;-71
2022/10/05 00:50:19;;;;;;;8.07;7.47;;;;;;;10.74;100.00;97252.81;5000027;28;20182;-72
2022/10/05 00:52:57;;;;;;;8.77;8.00;;;;;;;10.71;100.00;97256.66;5000236;28;20342;-71
2022/10/05 00:55:42;;;;;;;8.60;8.00;;;;;;;10.77;100.00;97253.19;4993427;28;20245;-71
2022/10/05 00:58:27;;;;;;;9.20;8.50;;;;;;;10.77;100.00;97257.63;4994125;28;20668;-72
2022/10/05 01:00:55;;;;;;;9.87;9.17;;;;;;;10.75;100.00;97259.69;4993945;28;20172;-71
2022/10/05 01:03:43;;;;;;;8.53;7.77;;;;;;;10.77;100.00;97258.44;4994316;28;20195;-71
2022/10/05 01:06:18;;;;;;;8.33;7.60;;;;;;;10.72;100.00;97249.59;5012995;28;20194;-71
2022/10/05 01:08:55;;;;;;;9.07;7.53;;;;;;;10.65;100.00;97254.91;5013010;28;20194;-71
2022/10/05 01:11:40;;;;;;;10.60;9.67;;;;;;;10.67;100.00;97249.44;5011741;28;20215;-73
2022/10/05 01:14:20;;;;;;;12.13;11.13;;;;;;;10.70;100.00;97251.66;4993722;28;20177;-73
2022/10/05 01:17:01;;;;;;;15.57;14.43;;;;;;;10.62;100.00;97246.69;4993931;28;20263;-72
2022/10/05 01:19:47;;;;;;;13.37;12.37;;;;;;;10.66;100.00;97253.91;5010879;28;20179;-73
2022/10/05 01:22:24;;;;;;;12.30;11.20;;;;;;;10.60;100.00;97257.38;5011319;28;20198;-71
2022/10/05 01:25:12;;;;;;;12.67;11.40;;;;;;;10.59;100.00;97250.53;4979866;28;20183;-71
2022/10/05 01:27:55;;;;;;;11.03;10.13;;;;;;;10.61;100.00;97247.69;4993538;28;20191;-71
2022/10/05 01:30:22;;;;;;;10.80;9.97;;;;;;;10.58;100.00;97246.31;5004758;28;20199;-71
2022/10/05 01:32:55;;;;;;;10.90;9.90;;;;;;;10.54;100.00;97241.69;5003076;28;20210;-71
2022/10/05 01:35:38;;;;;;;11.70;10.70;;;;;;;10.44;100.00;97239.56;4995281;28;20182;-71
2022/10/05 01:38:22;;;;;;;12.27;11.07;;;;;;;10.41;100.00;97237.38;5011779;28;20654;-71
2022/10/05 01:41:15;;;;;;;11.60;10.50;;;;;;;10.35;100.00;97239.03;4994748;28;20660;-71
2022/10/05 01:43:50;;;;;;;13.70;12.53;;;;;;;10.25;100.00;97228.22;4996654;28;20179;-72
2022/10/05 01:46:34;;;;;;;17.50;16.13;;;;;;;10.19;100.00;97230.91;4998396;28;20196;-72
2022/10/05 01:49:03;;;;;;;17.03;15.50;;;;;;;10.21;100.00;97229.66;4997008;28;20200;-72
2022/10/05 01:52:02;;;;;;;14.37;13.17;;;;;;;10.12;100.00;97238.78;5009316;28;20180;-72
2022/10/05 01:54:45;;;;;;;13.63;12.23;;;;;;;10.01;100.00;97235.03;4991366;28;20274;-71
2022/10/05 01:57:19;;;;;;;13.03;11.93;;;;;;;9.96;100.00;97240.09;4997370;28;20255;-71
2022/10/05 02:00:06;;;;;;;13.40;12.17;;;;;;;9.90;100.00;97238.31;4997194;28;20266;-71
2022/10/05 02:02:38;;;;;;;14.67;13.47;;;;;;;9.86;100.00;97237.13;4985333;28;20221;-72
2022/10/05 02:05:10;;;;;;;12.83;11.67;;;;;;;9.93;100.00;97230.03;5008975;28;20297;-72
2022/10/05 02:07:47;;;;;;;12.80;11.70;;;;;;;9.92;100.00;97225.00;4997071;28;20203;-72
2022/10/05 02:10:31;;;;;;;13.73;12.53;;;;;;;9.86;100.00;97231.09;4997071;28;20259;-71
2022/10/05 02:13:02;;;;;;;14.63;12.50;;;;;;;9.82;100.00;97227.28;4997018;28;20176;-71
2022/10/05 02:15:37;;;;;;;14.83;13.43;;;;;;;9.90;100.00;97224.41;4996974;28;20191;-72
2022/10/05 02:18:09;;;;;;;15.27;13.87;;;;;;;9.85;100.00;97230.28;4996888;28;20180;-72
2022/10/05 02:20:38;;;;;;;16.03;14.47;;;;;;;9.82;100.00;97232.50;5013318;28;20172;-72
2022/10/05 02:23:10;;;;;;;16.73;15.27;;;;;;;9.87;100.00;97227.44;5003446;28;20191;-72
2022/10/05 02:25:38;;;;;;;17.27;15.67;;;;;;;9.91;100.00;97226.84;5016080;28;20179;-72
2022/10/05 02:28:15;;;;;;;20.33;18.60;;;;;;;9.94;100.00;97222.97;5015956;28;20207;-72
2022/10/05 02:30:47;;;;;;;22.40;20.40;;;;;;;9.95;100.00;97214.13;4999347;28;20257;-72
2022/10/05 02:33:34;;;;;;;21.37;19.43;;;;;;;9.97;100.00;97217.34;4996768;28;20173;-72
2022/10/05 02:36:06;;;;;;;19.97;18.43;;;;;;;9.94;100.00;97213.31;4995891;28;20219;-71
2022/10/05 02:39:04;;;;;;;20.20;18.50;;;;;;;9.95;100.00;97212.31;4996630;28;20224;-72
2022/10/05 02:41:48;;;;;;;19.40;17.80;;;;;;;10.00;100.00;97204.59;5006328;28;20636;-72
2022/10/05 02:44:30;;;;;;;20.00;17.97;;;;;;;10.09;100.00;97202.53;5015670;28;20262;-72
2022/10/05 02:47:32;;;;;;;19.60;17.80;;;;;;;10.11;100.00;97200.50;4981532;28;20204;-72
2022/10/05 02:50:09;;;;;;;18.50;16.80;;;;;;;10.09;100.00;97194.66;5008962;28;20314;-72
2022/10/05 02:52:50;;;;;;;20.43;18.63;;;;;;;10.15;100.00;97193.00;4996947;28;20700;-72
2022/10/05 02:55:34;;;;;;;23.33;21.53;;;;;;;10.13;100.00;97200.28;4995639;28;20179;-72
2022/10/05 02:58:21;;;;;;;22.33;20.53;;;;;;;10.17;100.00;97212.78;5008774;28;20210;-72
2022/10/05 03:01:06;;;;;;;23.67;21.73;;;;;;;10.13;100.00;97216.00;5011420;28;20183;-71
2022/10/05 03:03:43;;;;;;;23.10;21.13;;;;;;;10.01;100.00;97221.94;5013290;28;20258;-73
2022/10/05 03:06:20;;;;;;;22.57;20.87;;;;;;;10.01;100.00;97216.69;5015425;28;20179;-73
2022/10/05 03:09:06;;;;;;;19.90;18.00;;;;;;;9.99;100.00;97216.09;5015226;28;20199;-73
2022/10/05 03:12:01;;;;;;;21.70;19.80;;;;;;;9.99;100.00;97218.72;5012553;28;20586;-73
2022/10/05 03:14:36;;;;;;;22.37;20.40;;;;;;;10.05;100.00;97232.78;5004436;28;20534;-73
2022/10/05 03:17:18;;;;;;;22.47;20.67;;;;;;;10.00;100.00;97225.56;5002288;28;20187;-73
2022/10/05 03:20:11;;;;;;;22.00;20.10;;;;;;;9.99;100.00;97223.94;4995565;28;20172;-73
2022/10/05 03:22:50;;;;;;;21.33;19.43;;;;;;;10.00;100.00;97219.50;5006678;28;20187;-73
2022/10/05 03:25:21;;;;;;;22.77;20.60;;;;;;;10.00;100.00;97214.28;5000836;28;20392;-73
2022/10/05 03:27:57;;;;;;;20.70;18.00;;;;;;;10.11;100.00;97207.56;5013618;28;20214;-73
2022/10/05 03:30:25;;;;;;;20.77;18.97;;;;;;;10.20;100.00;97217.56;4990779;28;20644;-73
2022/10/05 03:33:12;;;;;;;21.37;19.23;;;;;;;10.25;100.00;97209.09;5007935;28;20179;-73
2022/10/05 03:35:54;;;;;;;20.20;18.17;;;;;;;10.18;100.00;97203.91;4998057;28;20195;-73
2022/10/05 03:38:38;;;;;;;20.57;18.73;;;;;;;10.16;100.00;97189.38;5002093;28;20175;-73
2022/10/05 03:41:15;;;;;;;22.67;19.00;;;;;;;10.14;100.00;97191.44;5014615;28;20187;-73
2022/10/05 03:44:07;;;;;;;22.70;20.77;;;;;;;10.06;100.00;97184.63;5013432;28;20168;-74
2022/10/05 03:47:10;;;;;;;21.53;18.83;;;;;;;10.02;100.00;97179.03;5014290;28;20550;-73
2022/10/05 03:49:50;;;;;;;22.57;20.50;;;;;;;10.00;100.00;97177.63;5014252;28;20249;-73
2022/10/05 03:52:33;;;;;;;22.17;19.97;;;;;;;10.00;100.00;97177.63;4995698;28;20182;-73
2022/10/05 03:55:02;;;;;;;22.40;20.30;;;;;;;10.06;100.00;97186.44;4995034;28;20323;-73
2022/10/05 03:57:35;;;;;;;22.63;20.43;;;;;;;10.00;100.00;97178.41;4995037;28;20278;-73
2022/10/05 04:00:13;;;;;;;23.27;19.90;;;;;;;10.00;100.00;97182.84;4995417;28;20625;-73
2022/10/05 04:02:44;;;;;;;22.00;20.17;;;;;;;9.92;100.00;97177.88;4979332;28;20180;-73
2022/10/05 04:05:09;;;;;;;21.20;19.23;;;;;;;9.99;100.00;97182.06;5014058;28;20310;-73
2022/10/05 04:08:10;;;;;;;22.83;20.53;;;;;;;9.94;100.00;97168.78;5009803;28;20298;-73
2022/10/05 04:10:45;;;;;;;21.87;19.60;;;;;;;9.96;100.00;97173.81;4980319;28;20589;-72
2022/10/05 04:13:36;;;;;;;21.87;19.70;;;;;;;9.88;100.00;97174.88;5013841;28;20542;-72
2022/10/05 04:16:11;;;;;;;21.27;19.27;;;;;;;9.81;100.00;97174.13;5004171;28;20203;-73
2022/10/05 04:18:43;;;;;;;27.23;24.83;;;;;;;9.75;100.00;97167.09;5012406;28;20191;-73
2022/10/05 04:21:27;;;;;;;22.10;19.87;;;;;;;9.64;100.00;97174.84;5006835;28;20602;-73
2022/10/05 04:23:59;;;;;;;22.13;19.90;;;;;;;9.64;100.00;97174.84;5003149;28;20663;-74
2022/10/05 04:26:44;;;;;;;22.97;20.73;;;;;;;9.63;100.00;97175.88;5013903;28;20667;-72
2022/10/05 04:29:15;;;;;;;20.80;18.70;;;;;;;9.64;100.00;97172.25;4992480;28;20211;-73
2022/10/05 04:31:56;;;;;;;18.87;16.93;;;;;;;9.63;100.00;97163.59;5002093;28;20184;-72
2022/10/05 04:34:43;;;;;;;24.13;19.13;;;;;;;9.46;100.00;97165.91;4994066;28;20207;-72
2022/10/05 04:37:20;;;;;;;18.87;17.10;;;;;;;9.47;100.00;97169.31;4995038;28;20547;-72
2022/10/05 04:40:14;;;;;;;20.30;18.30;;;;;;;9.34;100.00;97174.59;4994054;28;20175;-72
2022/10/05 04:42:53;;;;;;;18.37;16.60;;;;;;;9.38;100.00;97173.16;4994200;28;20164;-72
2022/10/05 04:45:40;;;;;;;18.63;16.80;;;;;;;9.28;100.00;97165.78;4993942;28;20228;-72
2022/10/05 04:48:15;;;;;;;19.10;16.83;;;;;;;9.03;100.00;97170.09;5000711;28;20214;-72
2022/10/05 04:50:43;;;;;;;18.83;16.83;;;;;;;9.07;100.00;97166.88;5013262;28;20529;-73
2022/10/05 04:53:34;;;;;;;17.83;16.13;;;;;;;9.07;100.00;97177.34;4997912;28;20246;-72
2022/10/05 04:56:11;;;;;;;18.00;15.67;;;;;;;8.92;100.00;97178.59;4981117;28;20172;-72
2022/10/05 04:58:43;;;;;;;18.30;15.90;;;;;;;8.91;100.00;97179.63;5005172;28;20187;-72
2022/10/05 05:01:42;;;;;;;22.03;16.97;;;;;;;8.84;100.00;97176.22;5011713;28;20654;-72
2022/10/05 05:04:10;;;;;;;18.63;16.77;;;;;;;8.92;100.00;97178.59;4993860;28;20187;-72
2022/10/05 05:06:41;;;;;;;18.33;16.63;;;;;;;8.71;100.00;97184.88;4994026;28;20682;-72
2022/10/05 05:09:41;;;;;;;19.40;16.33;;;;;;;8.63;100.00;97183.31;5009529;28;20289;-73
2022/10/05 05:12:13;;;;;;;16.63;15.10;;;;;;;8.60;100.00;97185.50;4991038;28;20624;-72
2022/10/05 05:15:01;;;;;;;17.50;15.67;;;;;;;8.59;100.00;97189.94;5013556;28;20223;-73
2022/10/05 05:17:53;;;;;;;15.87;14.30;;;;;;;8.51;100.00;97189.34;5010396;28;20196;-74
2022/10/05 05:20:31;;;;;;;17.90;16.20;;;;;;;8.70;100.00;97191.91;4985101;28;20565;-73
2022/10/05 05:23:08;;;;;;;17.87;15.90;;;;;;;8.74;100.00;97200.97;5012935;28;20696;-74
2022/10/05 05:25:39;;;;;;;18.73;16.30;;;;;;;8.77;100.00;97202.34;5012948;28;20202;-74
2022/10/05 05:28:13;;;;;;;19.20;16.67;;;;;;;8.83;100.00;97204.16;5009730;28;20202;-73
2022/10/05 05:30:47;;;;;;;21.40;19.40;;;;;;;8.98;100.00;97206.53;4968551;28;20556;-72
2022/10/05 05:33:21;;;;;;;21.43;18.00;;;;;;;9.04;100.00;97208.31;5009275;28;20186;-75
2022/10/05 05:36:02;;;;;;;20.60;18.40;;;;;;;9.14;100.00;97213.91;4977758;28;20171;-73
2022/10/05 05:38:34;;;;;;;21.93;18.97;;;;;;;9.25;100.00;97212.47;4994565;28;20195;-74
2022/10/05 05:41:08;;;;;;;20.00;17.83;;;;;;;9.30;100.00;97213.47;4993524;28;20521;-74
2022/10/05 05:43:43;;;;;;;21.73;18.90;;;;;;;9.35;100.00;97215.47;4993274;28;20585;-74
2022/10/05 05:46:36;;;;;;;20.77;18.53;;;;;;;9.53;100.00;97210.31;4993570;28;20348;-71
2022/10/05 05:49:15;;;;;;;31.63;28.50;;;;;;;9.69;100.00;97217.72;5001720;28;20215;-72
2022/10/05 05:51:53;;;;;;;20.43;18.33;;;;;;;9.74;100.00;97212.63;5007172;28;20176;-71
2022/10/05 05:54:36;;;;;;;21.43;19.13;;;;;;;9.91;100.00;97216.38;5013042;28;20179;-72
2022/10/05 05:57:12;;;;;;;32.80;19.67;;;;;;;10.03;100.00;97222.50;5000520;28;20180;-72
2022/10/05 06:00:09;;;;;;;21.43;19.23;;;;;;;10.07;100.00;97220.28;5009695;28;20182;-72
2022/10/05 06:02:46;;;;;;;19.53;17.53;;;;;;;10.12;100.00;97227.50;5012634;28;20262;-72
2022/10/05 06:05:27;;;;;;;20.23;17.93;;;;;;;10.22;100.00;97227.84;5012670;28;20179;-72
2022/10/05 06:07:54;;;;;;;21.30;19.17;;;;;;;10.28;100.00;97227.81;5009832;28;20669;-72
2022/10/05 06:10:20;;;;;;;19.20;16.87;;;;;;;10.37;100.00;97234.38;4975556;28;20184;-72
2022/10/05 06:12:51;;;;;;;19.73;16.73;;;;;;;10.50;100.00;97233.47;4992948;28;20192;-73
2022/10/05 06:15:27;;;;;;;18.63;16.73;;;;;;;10.63;100.00;97237.81;4975519;28;20259;-72
2022/10/05 06:17:57;;;;;;;17.40;15.63;;;;;;;10.82;100.00;97244.66;4992798;28;20176;-75
2022/10/05 06:20:34;;;;;;;17.13;15.53;;;;;;;10.97;100.00;97244.34;5010459;28;20171;-72
2022/10/05 06:23:03;;;;;;;17.30;15.73;;;;;;;10.93;100.00;97243.16;5001647;28;20708;-72
2022/10/05 06:25:57;;;;;;;17.00;15.50;;;;;;;11.00;100.00;97243.88;4992753;28;20188;-71
2022/10/05 06:28:25;;;;;;;24.53;14.53;;;;;;;11.14;100.00;97245.38;4993198;28;20715;-72
2022/10/05 06:31:09;;;;;;;15.77;14.37;;;;;;;11.21;100.00;97252.13;5005393;28;20195;-72
2022/10/05 06:33:46;;;;;;;15.60;14.10;;;;;;;11.30;100.00;97257.91;4997614;28;20242;-72
2022/10/05 06:36:15;;;;;;;16.17;14.87;;;;;;;11.44;100.00;97258.53;5016076;28;20263;-71
2022/10/05 06:39:23;;;;;;;14.03;12.80;;;;;;;11.57;100.00;97255.75;5009160;28;20723;-72
2022/10/05 06:42:10;;;;;;;13.40;12.40;;;;;;;11.70;100.00;97254.81;5015537;28;20229;-71
2022/10/05 06:44:59;;;;;;;13.83;12.67;;;;;;;11.82;100.00;97269.59;5015193;28;20560;-71
2022/10/05 06:47:51;;;;;;;15.23;12.20;;;;;;;12.07;100.00;97272.09;5014904;28;20195;-72
2022/10/05 06:50:37;;;;;;;13.40;12.30;;;;;;;12.14;100.00;97272.81;5013918;28;20195;-72
2022/10/05 06:53:16;;;;;;;15.47;14.17;;;;;;;12.32;100.00;97278.00;4977585;28;20180;-71
2022/10/05 06:56:09;;;;;;;12.00;11.10;;;;;;;13.21;100.00;97276.94;4986498;28;20714;-72
2022/10/05 06:58:44;;;;;;;15.20;13.83;;;;;;;13.16;100.00;97274.19;4994209;28;20579;-70
2022/10/05 07:01:19;;;;;;;13.50;12.30;;;;;;;12.72;100.00;97275.53;4991566;28;20554;-71
2022/10/05 07:04:28;;;;;;;20.93;19.23;;;;;;;12.67;100.00;97274.63;5004475;28;20175;-72
2022/10/05 07:06:56;;;;;;;32.80;30.43;;;;;;;12.83;100.00;97279.19;4978522;28;20206;-72
2022/10/05 07:09:38;;;;;;;37.23;34.83;;;;;;;12.90;100.00;97282.53;5002330;28;20223;-71
2022/10/05 07:12:17;;;;;;;21.77;20.07;;;;;;;12.59;100.00;97273.16;5004399;28;20176;-72
2022/10/05 07:14:53;;;;;;;15.07;13.90;;;;;;;12.61;100.00;97284.22;4995544;28;20194;-72
2022/10/05 07:18:08;;;;;;;13.73;12.73;;;;;;;12.61;100.00;97280.78;4995372;28;20267;-72
2022/10/05 07:20:57;;;;;;;65.57;61.77;;;;;;;12.73;100.00;97276.34;4984929;28;20218;-71
2022/10/05 07:23:41;;;;;;;16.47;14.97;;;;;;;12.58;100.00;97281.25;5014230;28;20702;-71
2022/10/05 07:26:15;;;;;;;14.80;13.80;;;;;;;12.56;100.00;97288.56;4999935;28;20263;-71
2022/10/05 07:28:49;;;;;;;13.17;12.13;;;;;;;12.72;100.00;97280.81;5000401;28;20223;-71
2022/10/05 07:31:47;;;;;;;13.30;12.20;;;;;;;12.90;100.00;97287.78;4997462;28;20191;-71
2022/10/05 07:34:37;;;;;;;14.60;13.37;;;;;;;12.87;100.00;97286.41;4905348;28;20311;-72
2022/10/05 07:40:00;;;;;;;10.43;9.53;;;;;;;12.88;100.00;97284.56;5013898;28;20194;-72
2022/10/05 07:42:47;;;;;;;11.27;10.37;;;;;;;12.93;100.00;97295.22;5012276;28;20759;-72
2022/10/05 07:45:24;;;;;;;11.07;10.10;;;;;;;12.97;100.00;97290.31;4978997;28;20230;-73
2022/10/05 07:47:53;;;;;;;11.00;9.90;;;;;;;12.86;100.00;97302.44;5007573;28;20203;-72
2022/10/05 07:50:42;;;;;;;12.00;11.03;;;;;;;12.96;100.00;97299.25;5008485;28;20655;-72
2022/10/05 07:53:30;;;;;;;11.90;10.93;;;;;;;12.93;100.00;97306.53;4994877;28;20199;-71
2022/10/05 07:56:08;;;;;;;15.17;13.93;;;;;;;12.85;100.00;97304.28;4996972;28;20187;-72
2022/10/05 07:58:42;;;;;;;13.17;12.10;;;;;;;12.96;100.00;97309.75;5010723;28;20592;-72
2022/10/05 08:01:17;;;;;;;17.13;15.60;;;;;;;12.96;100.00;97302.66;5007980;28;20184;-72
2022/10/05 08:03:51;;;;;;;15.10;14.00;;;;;;;13.01;100.00;97300.16;4994183;28;20184;-72
2022/10/05 08:06:37;;;;;;;18.10;16.80;;;;;;;13.16;100.00;97305.78;4994391;28;20187;-72
2022/10/05 08:09:08;;;;;;;19.90;14.30;;;;;;;13.21;100.00;97307.72;4980656;28;20247;-72
2022/10/05 08:11:50;;;;;;;22.00;20.70;;;;;;;13.41;100.00;97305.53;5001219;28;20187;-72
2022/10/05 08:14:32;;;;;;;32.33;30.30;;;;;;;13.40;100.00;97297.88;5013108;28;20504;-72
2022/10/05 08:17:02;;;;;;;36.37;34.07;;;;;;;13.54;100.00;97307.91;5010110;28;20192;-72
2022/10/05 08:19:53;;;;;;;29.77;27.97;;;;;;;13.61;100.00;97303.31;4976790;28;20184;-72
2022/10/05 08:22:33;;;;;;;37.50;35.17;;;;;;;13.42;100.00;97312.41;4994257;28;20633;-72
2022/10/05 08:25:05;;;;;;;28.20;26.33;;;;;;;13.48;100.00;97310.69;4976510;28;20451;-72
2022/10/05 08:27:49;;;;;;;32.80;30.70;;;;;;;13.59;100.00;97310.66;5003899;28;20504;-72
2022/10/05 08:30:15;;;;;;;18.43;17.13;;;;;;;13.66;100.00;97307.88;5002032;28;20184;-72
2022/10/05 08:33:01;;;;;;;22.07;20.63;;;;;;;13.70;100.00;97303.75;5013113;28;20551;-72
2022/10/05 08:35:43;;;;;;;23.63;21.93;;;;;;;13.94;100.00;97310.53;5000385;28;20188;-72
2022/10/05 08:38:15;;;;;;;26.53;24.77;;;;;;;14.05;100.00;97301.00;4993860;28;20507;-72
2022/10/05 08:41:17;;;;;;;29.43;27.60;;;;;;;14.10;100.00;97309.00;4996913;28;20187;-72
2022/10/05 08:43:45;;;;;;;25.57;23.87;;;;;;;14.21;100.00;97302.09;5012913;28;20190;-74
2022/10/05 08:46:16;;;;;;;28.23;26.37;;;;;;;14.10;100.00;97301.09;5000595;28;20188;-72
2022/10/05 08:49:17;;;;;;;26.47;24.77;;;;;;;14.20;100.00;97296.03;4998518;28;20349;-72
2022/10/05 08:51:54;;;;;;;25.93;23.93;;;;;;;14.36;100.00;97291.81;4993294;28;20199;-72
2022/10/05 08:55:06;;;;;;;28.47;26.03;;;;;;;14.38;100.00;97295.00;4998712;28;20186;-72
2022/10/05 08:57:49;;;;;;;29.17;27.13;;;;;;;14.52;100.00;97301.59;5000847;28;20172;-73
2022/10/05 09:00:22;;;;;;;27.73;26.03;;;;;;;14.43;100.00;97295.91;4994568;28;20180;-72
2022/10/05 09:03:15;;;;;;;31.83;29.60;;;;;;;14.55;100.00;97298.47;4991368;28;20187;-72
2022/10/05 09:06:01;;;;;;;33.30;30.80;;;;;;;14.70;100.00;97297.94;4995668;28;20186;-72
2022/10/05 09:08:36;;;;;;;27.07;25.43;;;;;;;14.61;100.00;97299.34;5000269;28;20199;-72
2022/10/05 09:11:15;;;;;;;27.13;24.97;;;;;;;14.79;100.00;97292.00;4998885;28;20175;-72
2022/10/05 09:14:07;;;;;;;29.53;27.47;;;;;;;14.84;100.00;97288.66;5005974;28;20183;-72
2022/10/05 09:16:54;;;;;;;25.13;23.50;;;;;;;15.03;100.00;97292.66;4988686;28;20664;-72
2022/10/05 09:19:28;;;;;;;23.53;22.13;;;;;;;15.19;100.00;97289.19;5003039;28;20184;-72
2022/10/05 09:22:48;;;;;;;32.13;30.10;;;;;;;15.34;100.00;97285.94;4970738;28;20220;-72
2022/10/05 09:25:42;;;;;;;31.47;29.47;;;;;;;15.54;100.00;97282.81;4892318;29;20188;-72
2022/10/05 09:28:28;;;;;;;43.83;41.37;;;;;;;15.61;100.00;97284.19;4964308;28;20307;-72
2022/10/05 09:31:25;;;;;;;31.63;29.73;;;;;;;15.75;100.00;97280.16;4991136;28;20179;-72
2022/10/05 09:34:17;;;;;;;11.13;10.23;;;;;;;15.86;100.00;97277.63;4992886;28;20942;-72
2022/10/05 09:37:07;;;;;;;9.73;9.10;;;;;;;15.95;100.00;97284.84;5007012;28;20180;-73
2022/10/05 09:40:15;;;;;;;11.10;10.40;;;;;;;16.09;99.55;97283.44;5011935;28;20254;-73
2022/10/05 09:42:59;;;;;;;15.13;14.13;;;;;;;16.17;96.64;97276.88;4977671;28;20691;-72
2022/10/05 09:45:39;;;;;;;16.33;15.07;;;;;;;16.32;97.07;97274.41;4968726;28;20637;-72
2022/10/05 09:48:24;;;;;;;13.87;12.93;;;;;;;16.47;96.40;97276.38;4972800;28;20247;-73
2022/10/05 09:51:02;;;;;;;12.05;11.25;;;;;;;16.56;96.24;97275.66;4971312;28;20255;-72
2022/10/05 09:53:50;;;;;;;12.30;11.57;;;;;;;16.69;96.47;97274.47;4973309;28;20184;-72
2022/10/05 09:56:24;;;;;;;9.95;9.23;;;;;;;16.80;95.56;97264.75;4973171;28;20311;-73
2022/10/05 09:59:31;;;;;;;10.50;9.68;;;;;;;16.88;95.40;97259.78;4968142;28;20641;-73
2022/10/05 10:02:18;;;;;;;11.80;10.82;;;;;;;16.93;95.16;97259.81;4973139;28;20184;-74
2022/10/05 10:05:15;;;;;;;10.25;9.57;;;;;;;17.05;94.32;97257.75;4975987;28;20177;-71
2022/10/05 10:08:03;;;;;;;14.13;13.20;;;;;;;17.08;95.12;97256.47;4976189;28;20624;-72
2022/10/05 10:11:08;;;;;;;9.02;8.48;;;;;;;17.26;95.59;97247.28;4975072;28;20235;-71
2022/10/05 10:13:52;;;;;;;18.45;17.50;;;;;;;17.27;95.16;97248.88;4975451;28;20193;-71
2022/10/05 10:16:59;;;;;;;13.70;12.63;;;;;;;17.36;95.16;97253.44;4976613;28;20189;-72
2022/10/05 10:19:27;;;;;;;32.88;31.08;;;;;;;17.54;94.36;97244.25;4976255;28;20629;-73
2022/10/05 10:22:10;;;;;;;50.97;48.00;;;;;;;17.57;93.10;97238.41;4978110;28;20673;-72
2022/10/05 10:25:07;;;;;;;37.15;35.05;;;;;;;17.76;93.02;97238.78;4976389;28;20185;-72
2022/10/05 10:27:48;;;;;;;38.60;35.67;;;;;;;17.69;93.17;97235.56;4968689;28;20215;-72
2022/10/05 10:30:41;;;;;;;35.72;33.75;;;;;;;17.93;91.04;97234.06;4976298;28;20188;-72
2022/10/05 10:33:17;;;;;;;64.10;60.50;;;;;;;18.16;85.38;97236.22;4976204;28;20610;-72
2022/10/05 10:35:59;;;;;;;30.58;28.95;;;;;;;18.27;84.33;97229.06;4975781;28;20644;-72
2022/10/05 10:38:48;;;;;;;37.40;35.45;;;;;;;18.33;84.61;97233.31;4976020;28;20271;-72
2022/10/05 10:41:41;;;;;;;38.35;36.30;;;;;;;18.38;85.05;97233.31;4945054;28;20275;-72
2022/10/05 10:44:40;;;;;;;13.25;12.35;;;;;;;18.52;87.52;97229.06;4980922;28;20219;-74
2022/10/05 10:47:34;;;;;;;32.60;30.48;;;;;;;18.62;86.86;97231.72;5000161;28;20641;-72
2022/10/05 10:50:08;;;;;;;8.38;7.85;;;;;;;18.70;87.86;97222.44;4995895;28;20536;-72
2022/10/05 10:52:57;;;;;;;21.20;20.05;;;;;;;18.67;87.41;97225.63;4995970;28;20191;-72
2022/10/05 10:55:58;;;;;;;14.75;13.52;;;;;;;18.75;87.10;97218.97;5001332;28;20191;-71
2022/10/05 10:58:58;;;;;;;15.90;14.93;;;;;;;18.82;87.18;97219.50;4971120;28;20214;-72
2022/10/05 11:01:34;;;;;;;12.77;11.80;;;;;;;18.87;87.54;97214.97;4998028;28;20191;-72
2022/10/05 11:04:21;;;;;;;13.68;12.77;;;;;;;19.02;88.66;97206.16;5004547;28;20635;-72
2022/10/05 11:07:29;;;;;;;19.45;18.30;;;;;;;19.01;85.93;97217.84;4997986;28;20184;-72
2022/10/05 11:09:54;;;;;;;12.20;11.32;;;;;;;19.03;86.98;97207.75;4955704;28;20247;-72
2022/10/05 11:12:38;;;;;;;48.42;45.53;;;;;;;19.27;84.85;97197.34;5000411;28;20198;-72
2022/10/05 11:15:30;;;;;;;32.55;30.70;;;;;;;19.22;84.96;97205.34;5001313;28;20280;-72
2022/10/05 11:18:04;;;;;;;57.80;54.15;;;;;;;19.43;85.40;97202.31;5014500;28;20644;-72
2022/10/05 11:20:32;;;;;;;17.20;16.30;;;;;;;19.58;82.07;97195.34;5015072;28;20187;-73
2022/10/05 11:23:32;;;;;;;20.80;19.60;;;;;;;19.77;77.24;97191.00;5001252;28;20323;-71
2022/10/05 11:26:18;;;;;;;22.02;20.83;;;;;;;19.92;75.71;97193.56;4994553;28;20184;-71
2022/10/05 11:28:49;;;;;;;26.88;25.42;;;;;;;20.12;75.22;97188.09;4991706;28;20665;-70
2022/10/05 11:31:52;;;;;;;47.45;44.92;;;;;;;20.13;74.19;97178.25;4996436;28;20235;-70
2022/10/05 11:34:23;;;;;;;51.97;49.20;;;;;;;20.30;74.19;97182.13;4996149;28;20258;-72
2022/10/05 11:37:19;;;;;;;41.08;38.92;;;;;;;20.39;73.21;97178.91;5005192;28;20186;-72
2022/10/05 11:40:15;;;;;;;42.15;39.90;;;;;;;20.38;71.73;97166.66;5014198;28;20194;-72
2022/10/05 11:43:02;;;;;;;36.70;34.75;;;;;;;20.51;72.39;97184.63;4999325;28;20188;-72
2022/10/05 11:45:46;;;;;;;166.40;157.30;;;;;;;20.63;70.43;97182.38;5004424;28;20238;-72
2022/10/05 11:48:26;;;;;;;181.90;172.15;;;;;;;20.74;70.54;97166.03;4996975;28;20204;-71
2022/10/05 11:51:05;;;;;;;67.38;63.80;;;;;;;20.62;69.44;97173.59;4995007;28;20203;-72
2022/10/05 11:53:41;;;;;;;93.75;88.70;;;;;;;20.62;68.84;97167.47;4992972;28;20184;-75
2022/10/05 11:56:21;;;;;;;105.10;99.63;;;;;;;20.68;69.03;97166.34;4997731;28;20238;-71
2022/10/05 11:59:22;;;;;;;108.13;102.38;;;;;;;20.80;68.81;97160.63;5012389;28;20263;-71
2022/10/05 12:02:39;;;;;;;86.07;81.47;;;;;;;20.94;67.90;97164.25;5006288;28;20191;-71
2022/10/05 12:05:31;;;;;;;80.82;76.63;;;;;;;20.94;68.15;97162.38;5003451;28;20176;-71
2022/10/05 12:08:10;;;;;;;54.17;51.22;;;;;;;21.06;69.44;97162.78;4996973;28;20671;-71
2022/10/05 12:10:51;;;;;;;58.72;55.53;;;;;;;21.25;68.53;97154.81;5013568;28;20579;-72
2022/10/05 12:13:50;;;;;;;37.75;35.40;;;;;;;21.29;67.14;97160.41;5013558;28;20190;-74
2022/10/05 12:16:27;;;;;;;45.80;43.33;;;;;;;21.42;67.25;97157.81;4991447;28;20563;-71
2022/10/05 12:19:01;;;;;;;32.03;30.33;;;;;;;21.40;66.02;97154.63;4986916;28;20201;-70
2022/10/05 12:21:26;;;;;;;34.45;32.50;;;;;;;21.49;66.68;97152.13;4995173;28;20278;-71
2022/10/05 12:24:15;;;;;;;28.98;27.38;;;;;;;21.41;66.33;97150.88;5013328;28;20270;-71